sensor_id;sensor_type;location;lat;lon;timestamp;P1;durP1;ratioP1;P2;durP2;ratioP2
77298;SDS011;66361;52.034;20.656;2024-03-07T00:00:16;18.85;;;11.38;;
77298;SDS011;66361;52.034;20.656;2024-03-07T00:04:21;16.90;;;9.88;;
77298;SDS011;66361;52.034;20.656;2024-03-07T00:08:05;16.30;;;10.75;;
77298;SDS011;66361;52.034;20.656;2024-03-07T00:11:49;21.60;;;11.30;;
77298;SDS011;66361;52.034;20.656;2024-03-07T00:15:34;16.63;;;9.95;;
77298;SDS011;66361;52.034;20.656;2024-03-07T00:19:18;18.92;;;9.50;;
77298;SDS011;66361;52.034;20.656;2024-03-07T00:23:03;20.65;;;11.90;;
77298;SDS011;66361;52.034;20.656;2024-03-07T00:26:48;20.17;;;10.30;;
77298;SDS011;66361;52.034;20.656;2024-03-07T00:30:35;15.55;;;9.30;;
77298;SDS011;66361;52.034;20.656;2024-03-07T00:34:19;21.20;;;9.15;;
77298;SDS011;66361;52.034;20.656;2024-03-07T00:38:07;19.83;;;10.10;;
77298;SDS011;66361;52.034;20.656;2024-03-07T00:41:51;13.85;;;9.32;;
77298;SDS011;66361;52.034;20.656;2024-03-07T00:45:36;13.75;;;7.95;;
77298;SDS011;66361;52.034;20.656;2024-03-07T00:49:20;19.98;;;11.90;;
77298;SDS011;66361;52.034;20.656;2024-03-07T00:53:04;14.35;;;9.50;;
77298;SDS011;66361;52.034;20.656;2024-03-07T00:56:48;19.70;;;10.35;;
77298;SDS011;66361;52.034;20.656;2024-03-07T01:00:32;19.08;;;10.25;;
77298;SDS011;66361;52.034;20.656;2024-03-07T01:04:18;23.45;;;11.00;;
77298;SDS011;66361;52.034;20.656;2024-03-07T01:08:02;22.20;;;11.88;;
77298;SDS011;66361;52.034;20.656;2024-03-07T01:11:47;11.75;;;8.15;;
77298;SDS011;66361;52.034;20.656;2024-03-07T01:15:31;18.55;;;11.23;;
77298;SDS011;66361;52.034;20.656;2024-03-07T01:19:15;19.48;;;10.57;;
77298;SDS011;66361;52.034;20.656;2024-03-07T01:23:01;19.02;;;9.93;;
77298;SDS011;66361;52.034;20.656;2024-03-07T01:30:28;21.42;;;10.77;;
77298;SDS011;66361;52.034;20.656;2024-03-07T01:34:12;20.38;;;10.13;;
77298;SDS011;66361;52.034;20.656;2024-03-07T01:37:57;19.27;;;12.48;;
77298;SDS011;66361;52.034;20.656;2024-03-07T01:41:42;20.13;;;10.68;;
77298;SDS011;66361;52.034;20.656;2024-03-07T01:45:26;17.90;;;9.82;;
77298;SDS011;66361;52.034;20.656;2024-03-07T01:49:10;18.30;;;10.73;;
77298;SDS011;66361;52.034;20.656;2024-03-07T01:52:54;20.48;;;10.80;;
77298;SDS011;66361;52.034;20.656;2024-03-07T01:56:39;17.65;;;11.82;;
77298;SDS011;66361;52.034;20.656;2024-03-07T02:00:24;18.50;;;10.18;;
77298;SDS011;66361;52.034;20.656;2024-03-07T02:04:09;9.57;;;6.22;;
77298;SDS011;66361;52.034;20.656;2024-03-07T02:07:53;15.07;;;9.18;;
77298;SDS011;66361;52.034;20.656;2024-03-07T02:11:37;18.58;;;11.15;;
77298;SDS011;66361;52.034;20.656;2024-03-07T02:15:22;17.63;;;10.60;;
77298;SDS011;66361;52.034;20.656;2024-03-07T02:19:07;18.38;;;10.73;;
77298;SDS011;66361;52.034;20.656;2024-03-07T02:22:56;17.95;;;10.70;;
77298;SDS011;66361;52.034;20.656;2024-03-07T02:26:39;18.20;;;11.25;;
77298;SDS011;66361;52.034;20.656;2024-03-07T02:30:23;18.50;;;11.07;;
77298;SDS011;66361;52.034;20.656;2024-03-07T02:34:08;13.57;;;8.73;;
77298;SDS011;66361;52.034;20.656;2024-03-07T02:37:51;16.67;;;10.70;;
77298;SDS011;66361;52.034;20.656;2024-03-07T02:41:37;4.95;;;4.00;;
77298;SDS011;66361;52.034;20.656;2024-03-07T02:45:21;14.75;;;8.30;;
77298;SDS011;66361;52.034;20.656;2024-03-07T02:49:05;16.35;;;9.48;;
77298;SDS011;66361;52.034;20.656;2024-03-07T02:52:49;14.65;;;8.73;;
77298;SDS011;66361;52.034;20.656;2024-03-07T03:04:09;16.52;;;8.55;;
77298;SDS011;66361;52.034;20.656;2024-03-07T03:07:53;15.10;;;8.75;;
77298;SDS011;66361;52.034;20.656;2024-03-07T03:11:38;14.32;;;8.57;;
77298;SDS011;66361;52.034;20.656;2024-03-07T03:15:23;16.77;;;9.80;;
77298;SDS011;66361;52.034;20.656;2024-03-07T03:22:52;19.80;;;9.98;;
77298;SDS011;66361;52.034;20.656;2024-03-07T03:26:40;16.05;;;10.13;;
77298;SDS011;66361;52.034;20.656;2024-03-07T03:30:26;14.88;;;9.93;;
77298;SDS011;66361;52.034;20.656;2024-03-07T03:34:10;12.50;;;7.47;;
77298;SDS011;66361;52.034;20.656;2024-03-07T03:37:54;14.48;;;8.63;;
77298;SDS011;66361;52.034;20.656;2024-03-07T03:41:38;13.05;;;6.60;;
77298;SDS011;66361;52.034;20.656;2024-03-07T03:45:22;7.03;;;6.30;;
77298;SDS011;66361;52.034;20.656;2024-03-07T03:49:09;16.15;;;8.70;;
77298;SDS011;66361;52.034;20.656;2024-03-07T03:52:54;18.58;;;10.63;;
77298;SDS011;66361;52.034;20.656;2024-03-07T03:56:39;16.27;;;8.50;;
77298;SDS011;66361;52.034;20.656;2024-03-07T04:00:23;5.97;;;4.78;;
77298;SDS011;66361;52.034;20.656;2024-03-07T04:04:07;12.55;;;6.47;;
77298;SDS011;66361;52.034;20.656;2024-03-07T04:07:53;17.98;;;9.02;;
77298;SDS011;66361;52.034;20.656;2024-03-07T04:11:37;15.75;;;10.30;;
77298;SDS011;66361;52.034;20.656;2024-03-07T04:15:21;13.45;;;8.90;;
77298;SDS011;66361;52.034;20.656;2024-03-07T04:19:09;13.55;;;8.43;;
77298;SDS011;66361;52.034;20.656;2024-03-07T04:22:55;12.35;;;7.53;;
77298;SDS011;66361;52.034;20.656;2024-03-07T04:30:24;12.93;;;8.27;;
77298;SDS011;66361;52.034;20.656;2024-03-07T04:34:08;13.40;;;8.52;;
77298;SDS011;66361;52.034;20.656;2024-03-07T04:37:52;14.45;;;9.45;;
77298;SDS011;66361;52.034;20.656;2024-03-07T04:41:38;12.43;;;7.53;;
77298;SDS011;66361;52.034;20.656;2024-03-07T04:49:06;14.15;;;8.02;;
77298;SDS011;66361;52.034;20.656;2024-03-07T04:52:49;18.60;;;8.85;;
77298;SDS011;66361;52.034;20.656;2024-03-07T04:56:33;10.15;;;7.32;;
77298;SDS011;66361;52.034;20.656;2024-03-07T05:00:18;15.95;;;8.77;;
77298;SDS011;66361;52.034;20.656;2024-03-07T05:04:02;15.65;;;8.82;;
77298;SDS011;66361;52.034;20.656;2024-03-07T05:07:46;15.30;;;8.52;;
77298;SDS011;66361;52.034;20.656;2024-03-07T05:15:15;13.27;;;7.57;;
77298;SDS011;66361;52.034;20.656;2024-03-07T05:19:01;13.57;;;7.95;;
77298;SDS011;66361;52.034;20.656;2024-03-07T05:22:47;17.10;;;8.63;;
77298;SDS011;66361;52.034;20.656;2024-03-07T05:26:33;14.95;;;8.25;;
77298;SDS011;66361;52.034;20.656;2024-03-07T05:30:19;15.73;;;11.23;;
77298;SDS011;66361;52.034;20.656;2024-03-07T05:34:06;14.30;;;7.85;;
77298;SDS011;66361;52.034;20.656;2024-03-07T05:37:50;14.43;;;7.75;;
77298;SDS011;66361;52.034;20.656;2024-03-07T05:41:34;16.13;;;8.68;;
77298;SDS011;66361;52.034;20.656;2024-03-07T05:45:18;16.60;;;9.20;;
77298;SDS011;66361;52.034;20.656;2024-03-07T05:49:02;13.93;;;7.80;;
77298;SDS011;66361;52.034;20.656;2024-03-07T05:52:47;17.48;;;7.35;;
77298;SDS011;66361;52.034;20.656;2024-03-07T05:56:31;18.00;;;11.02;;
77298;SDS011;66361;52.034;20.656;2024-03-07T06:00:18;15.63;;;8.93;;
77298;SDS011;66361;52.034;20.656;2024-03-07T06:04:10;14.20;;;8.68;;
77298;SDS011;66361;52.034;20.656;2024-03-07T06:07:57;16.80;;;9.95;;
77298;SDS011;66361;52.034;20.656;2024-03-07T06:15:25;16.25;;;8.88;;
77298;SDS011;66361;52.034;20.656;2024-03-07T06:19:09;20.58;;;9.98;;
77298;SDS011;66361;52.034;20.656;2024-03-07T06:22:53;16.63;;;10.68;;
77298;SDS011;66361;52.034;20.656;2024-03-07T06:26:40;17.77;;;10.82;;
77298;SDS011;66361;52.034;20.656;2024-03-07T06:30:42;20.58;;;12.07;;
77298;SDS011;66361;52.034;20.656;2024-03-07T06:34:27;19.33;;;10.30;;
77298;SDS011;66361;52.034;20.656;2024-03-07T06:38:12;11.32;;;7.55;;
77298;SDS011;66361;52.034;20.656;2024-03-07T06:41:58;18.52;;;9.43;;
77298;SDS011;66361;52.034;20.656;2024-03-07T06:45:42;20.67;;;11.38;;
77298;SDS011;66361;52.034;20.656;2024-03-07T06:49:28;20.33;;;11.43;;
77298;SDS011;66361;52.034;20.656;2024-03-07T06:53:12;20.80;;;11.60;;
77298;SDS011;66361;52.034;20.656;2024-03-07T06:56:56;19.38;;;12.32;;
77298;SDS011;66361;52.034;20.656;2024-03-07T07:00:42;26.90;;;12.07;;
77298;SDS011;66361;52.034;20.656;2024-03-07T07:04:27;18.02;;;12.07;;
77298;SDS011;66361;52.034;20.656;2024-03-07T07:08:23;18.48;;;10.60;;
77298;SDS011;66361;52.034;20.656;2024-03-07T07:12:09;21.98;;;12.90;;
77298;SDS011;66361;52.034;20.656;2024-03-07T07:15:53;20.30;;;12.15;;
77298;SDS011;66361;52.034;20.656;2024-03-07T07:19:37;20.13;;;11.10;;
77298;SDS011;66361;52.034;20.656;2024-03-07T07:23:22;19.73;;;10.98;;
77298;SDS011;66361;52.034;20.656;2024-03-07T07:27:06;18.30;;;11.70;;
77298;SDS011;66361;52.034;20.656;2024-03-07T07:30:51;20.13;;;11.20;;
77298;SDS011;66361;52.034;20.656;2024-03-07T07:34:35;17.83;;;11.27;;
77298;SDS011;66361;52.034;20.656;2024-03-07T07:38:19;18.70;;;12.63;;
77298;SDS011;66361;52.034;20.656;2024-03-07T07:42:03;23.33;;;13.25;;
77298;SDS011;66361;52.034;20.656;2024-03-07T07:45:51;18.92;;;12.05;;
77298;SDS011;66361;52.034;20.656;2024-03-07T07:49:35;18.02;;;12.80;;
77298;SDS011;66361;52.034;20.656;2024-03-07T07:53:20;18.65;;;11.35;;
77298;SDS011;66361;52.034;20.656;2024-03-07T07:57:06;18.75;;;13.25;;
77298;SDS011;66361;52.034;20.656;2024-03-07T08:00:49;19.65;;;13.57;;
77298;SDS011;66361;52.034;20.656;2024-03-07T08:04:35;20.13;;;13.35;;
77298;SDS011;66361;52.034;20.656;2024-03-07T08:08:18;18.30;;;13.40;;
77298;SDS011;66361;52.034;20.656;2024-03-07T08:12:04;18.77;;;10.98;;
77298;SDS011;66361;52.034;20.656;2024-03-07T08:15:49;20.40;;;12.43;;
77298;SDS011;66361;52.034;20.656;2024-03-07T08:19:37;17.38;;;11.65;;
77298;SDS011;66361;52.034;20.656;2024-03-07T08:23:21;15.60;;;10.35;;
77298;SDS011;66361;52.034;20.656;2024-03-07T08:27:07;11.75;;;8.40;;
77298;SDS011;66361;52.034;20.656;2024-03-07T08:30:53;10.55;;;7.80;;
77298;SDS011;66361;52.034;20.656;2024-03-07T08:34:38;10.32;;;8.27;;
77298;SDS011;66361;52.034;20.656;2024-03-07T08:38:22;12.38;;;7.43;;
77298;SDS011;66361;52.034;20.656;2024-03-07T08:42:06;11.60;;;8.52;;
77298;SDS011;66361;52.034;20.656;2024-03-07T08:45:50;15.02;;;9.15;;
77298;SDS011;66361;52.034;20.656;2024-03-07T08:49:35;11.15;;;6.45;;
77298;SDS011;66361;52.034;20.656;2024-03-07T08:53:20;14.70;;;8.63;;
77298;SDS011;66361;52.034;20.656;2024-03-07T08:57:04;11.85;;;8.55;;
77298;SDS011;66361;52.034;20.656;2024-03-07T09:00:49;12.13;;;8.88;;
77298;SDS011;66361;52.034;20.656;2024-03-07T09:04:34;12.68;;;8.43;;
77298;SDS011;66361;52.034;20.656;2024-03-07T09:08:19;13.07;;;8.50;;
77298;SDS011;66361;52.034;20.656;2024-03-07T09:12:03;14.65;;;10.15;;
77298;SDS011;66361;52.034;20.656;2024-03-07T09:15:48;14.00;;;8.75;;
77298;SDS011;66361;52.034;20.656;2024-03-07T09:19:32;14.73;;;9.18;;
77298;SDS011;66361;52.034;20.656;2024-03-07T09:23:16;10.65;;;7.78;;
77298;SDS011;66361;52.034;20.656;2024-03-07T09:27:01;14.88;;;10.57;;
77298;SDS011;66361;52.034;20.656;2024-03-07T09:30:44;12.90;;;7.72;;
77298;SDS011;66361;52.034;20.656;2024-03-07T09:34:28;12.25;;;7.32;;
77298;SDS011;66361;52.034;20.656;2024-03-07T09:38:13;12.00;;;7.53;;
77298;SDS011;66361;52.034;20.656;2024-03-07T09:41:57;11.15;;;7.40;;
77298;SDS011;66361;52.034;20.656;2024-03-07T09:49:30;12.73;;;8.07;;
77298;SDS011;66361;52.034;20.656;2024-03-07T09:53:18;12.93;;;7.30;;
77298;SDS011;66361;52.034;20.656;2024-03-07T09:57:03;9.77;;;6.88;;
77298;SDS011;66361;52.034;20.656;2024-03-07T10:00:51;12.30;;;7.68;;
77298;SDS011;66361;52.034;20.656;2024-03-07T10:04:38;10.98;;;6.25;;
77298;SDS011;66361;52.034;20.656;2024-03-07T10:08:27;13.35;;;8.20;;
77298;SDS011;66361;52.034;20.656;2024-03-07T10:12:11;12.80;;;7.32;;
77298;SDS011;66361;52.034;20.656;2024-03-07T10:15:59;11.32;;;6.93;;
77298;SDS011;66361;52.034;20.656;2024-03-07T10:19:43;12.93;;;7.57;;
77298;SDS011;66361;52.034;20.656;2024-03-07T10:23:30;9.55;;;6.47;;
77298;SDS011;66361;52.034;20.656;2024-03-07T10:27:17;9.05;;;6.55;;
77298;SDS011;66361;52.034;20.656;2024-03-07T10:31:02;10.05;;;4.72;;
77298;SDS011;66361;52.034;20.656;2024-03-07T10:34:53;8.98;;;5.88;;
77298;SDS011;66361;52.034;20.656;2024-03-07T10:38:37;11.52;;;5.60;;
77298;SDS011;66361;52.034;20.656;2024-03-07T10:42:21;9.73;;;6.18;;
77298;SDS011;66361;52.034;20.656;2024-03-07T10:46:11;7.18;;;5.13;;
77298;SDS011;66361;52.034;20.656;2024-03-07T10:49:59;11.27;;;6.95;;
77298;SDS011;66361;52.034;20.656;2024-03-07T10:53:57;8.13;;;5.45;;
77298;SDS011;66361;52.034;20.656;2024-03-07T10:57:49;7.70;;;4.97;;
77298;SDS011;66361;52.034;20.656;2024-03-07T11:01:38;10.85;;;5.50;;
77298;SDS011;66361;52.034;20.656;2024-03-07T11:05:34;7.50;;;4.53;;
77298;SDS011;66361;52.034;20.656;2024-03-07T11:09:19;5.32;;;3.95;;
77298;SDS011;66361;52.034;20.656;2024-03-07T11:13:06;7.68;;;4.93;;
77298;SDS011;66361;52.034;20.656;2024-03-07T11:16:55;7.43;;;5.05;;
77298;SDS011;66361;52.034;20.656;2024-03-07T11:20:39;7.85;;;4.97;;
77298;SDS011;66361;52.034;20.656;2024-03-07T11:24:29;8.82;;;5.55;;
77298;SDS011;66361;52.034;20.656;2024-03-07T11:28:15;7.90;;;4.70;;
77298;SDS011;66361;52.034;20.656;2024-03-07T11:32:04;9.43;;;5.63;;
77298;SDS011;66361;52.034;20.656;2024-03-07T11:35:50;6.22;;;3.78;;
77298;SDS011;66361;52.034;20.656;2024-03-07T11:39:40;5.85;;;4.43;;
77298;SDS011;66361;52.034;20.656;2024-03-07T11:43:26;7.97;;;4.78;;
77298;SDS011;66361;52.034;20.656;2024-03-07T11:47:13;8.32;;;4.82;;
77298;SDS011;66361;52.034;20.656;2024-03-07T11:50:58;8.27;;;5.15;;
77298;SDS011;66361;52.034;20.656;2024-03-07T11:54:42;6.28;;;3.92;;
77298;SDS011;66361;52.034;20.656;2024-03-07T11:58:29;7.68;;;4.30;;
77298;SDS011;66361;52.034;20.656;2024-03-07T12:02:15;7.40;;;4.72;;
77298;SDS011;66361;52.034;20.656;2024-03-07T12:06:00;7.18;;;4.55;;
77298;SDS011;66361;52.034;20.656;2024-03-07T12:09:44;9.55;;;5.40;;
77298;SDS011;66361;52.034;20.656;2024-03-07T12:13:32;7.40;;;5.03;;
77298;SDS011;66361;52.034;20.656;2024-03-07T12:17:17;8.93;;;6.00;;
77298;SDS011;66361;52.034;20.656;2024-03-07T12:21:01;4.88;;;4.03;;
77298;SDS011;66361;52.034;20.656;2024-03-07T12:24:59;4.90;;;3.75;;
77298;SDS011;66361;52.034;20.656;2024-03-07T12:28:45;6.05;;;4.80;;
77298;SDS011;66361;52.034;20.656;2024-03-07T12:32:31;7.35;;;3.83;;
77298;SDS011;66361;52.034;20.656;2024-03-07T12:36:15;5.78;;;4.53;;
77298;SDS011;66361;52.034;20.656;2024-03-07T12:39:59;8.20;;;4.88;;
77298;SDS011;66361;52.034;20.656;2024-03-07T12:43:47;9.18;;;5.20;;
77298;SDS011;66361;52.034;20.656;2024-03-07T12:47:33;9.07;;;5.65;;
77298;SDS011;66361;52.034;20.656;2024-03-07T12:51:19;8.43;;;5.35;;
77298;SDS011;66361;52.034;20.656;2024-03-07T12:55:06;7.15;;;5.13;;
77298;SDS011;66361;52.034;20.656;2024-03-07T12:58:51;3.45;;;3.15;;
77298;SDS011;66361;52.034;20.656;2024-03-07T13:02:38;8.00;;;4.68;;
77298;SDS011;66361;52.034;20.656;2024-03-07T13:06:24;8.00;;;4.70;;
77298;SDS011;66361;52.034;20.656;2024-03-07T13:10:12;8.85;;;5.00;;
77298;SDS011;66361;52.034;20.656;2024-03-07T13:13:57;6.10;;;3.97;;
77298;SDS011;66361;52.034;20.656;2024-03-07T13:17:43;7.57;;;4.68;;
77298;SDS011;66361;52.034;20.656;2024-03-07T13:21:27;6.00;;;3.67;;
77298;SDS011;66361;52.034;20.656;2024-03-07T13:25:13;4.85;;;3.55;;
77298;SDS011;66361;52.034;20.656;2024-03-07T13:28:59;5.93;;;3.45;;
77298;SDS011;66361;52.034;20.656;2024-03-07T13:32:45;9.68;;;5.07;;
77298;SDS011;66361;52.034;20.656;2024-03-07T13:36:29;9.15;;;4.80;;
77298;SDS011;66361;52.034;20.656;2024-03-07T13:40:12;8.18;;;4.65;;
77298;SDS011;66361;52.034;20.656;2024-03-07T13:44:05;10.38;;;5.40;;
77298;SDS011;66361;52.034;20.656;2024-03-07T13:47:51;6.25;;;4.18;;
77298;SDS011;66361;52.034;20.656;2024-03-07T13:51:37;7.05;;;4.60;;
77298;SDS011;66361;52.034;20.656;2024-03-07T13:55:22;8.13;;;5.00;;
77298;SDS011;66361;52.034;20.656;2024-03-07T14:03:30;7.85;;;5.07;;
77298;SDS011;66361;52.034;20.656;2024-03-07T14:07:35;8.77;;;5.45;;
77298;SDS011;66361;52.034;20.656;2024-03-07T14:11:35;5.00;;;4.05;;
77298;SDS011;66361;52.034;20.656;2024-03-07T14:20:19;6.28;;;3.90;;
77298;SDS011;66361;52.034;20.656;2024-03-07T14:28:44;8.88;;;4.65;;
77298;SDS011;66361;52.034;20.656;2024-03-07T14:32:38;9.23;;;5.07;;
77298;SDS011;66361;52.034;20.656;2024-03-07T14:40:18;7.32;;;4.40;;
77298;SDS011;66361;52.034;20.656;2024-03-07T14:44:07;7.35;;;5.40;;
77298;SDS011;66361;52.034;20.656;2024-03-07T14:47:52;8.05;;;4.00;;
77298;SDS011;66361;52.034;20.656;2024-03-07T14:51:39;7.78;;;4.43;;
77298;SDS011;66361;52.034;20.656;2024-03-07T14:55:36;9.45;;;5.63;;
77298;SDS011;66361;52.034;20.656;2024-03-07T14:59:23;8.52;;;4.47;;
77298;SDS011;66361;52.034;20.656;2024-03-07T15:03:08;31.00;;;14.35;;
77298;SDS011;66361;52.034;20.656;2024-03-07T15:06:57;7.47;;;4.85;;
77298;SDS011;66361;52.034;20.656;2024-03-07T15:10:48;7.15;;;5.03;;
77298;SDS011;66361;52.034;20.656;2024-03-07T15:14:35;8.07;;;4.45;;
77298;SDS011;66361;52.034;20.656;2024-03-07T15:18:23;9.45;;;5.25;;
77298;SDS011;66361;52.034;20.656;2024-03-07T15:22:08;9.02;;;5.32;;
77298;SDS011;66361;52.034;20.656;2024-03-07T15:25:52;7.22;;;4.55;;
77298;SDS011;66361;52.034;20.656;2024-03-07T15:29:36;8.23;;;4.63;;
77298;SDS011;66361;52.034;20.656;2024-03-07T15:33:22;7.57;;;4.22;;
77298;SDS011;66361;52.034;20.656;2024-03-07T15:37:08;7.93;;;4.82;;
77298;SDS011;66361;52.034;20.656;2024-03-07T15:40:58;10.57;;;5.40;;
77298;SDS011;66361;52.034;20.656;2024-03-07T15:44:44;10.45;;;5.95;;
77298;SDS011;66361;52.034;20.656;2024-03-07T15:48:27;9.32;;;5.80;;
77298;SDS011;66361;52.034;20.656;2024-03-07T15:52:13;8.88;;;4.82;;
77298;SDS011;66361;52.034;20.656;2024-03-07T15:56:00;8.10;;;5.05;;
77298;SDS011;66361;52.034;20.656;2024-03-07T15:59:44;11.02;;;5.30;;
77298;SDS011;66361;52.034;20.656;2024-03-07T16:03:28;8.70;;;5.10;;
77298;SDS011;66361;52.034;20.656;2024-03-07T16:07:14;8.43;;;5.15;;
77298;SDS011;66361;52.034;20.656;2024-03-07T16:11:00;9.20;;;5.40;;
77298;SDS011;66361;52.034;20.656;2024-03-07T16:14:44;9.10;;;4.95;;
77298;SDS011;66361;52.034;20.656;2024-03-07T16:18:29;10.60;;;6.30;;
77298;SDS011;66361;52.034;20.656;2024-03-07T16:22:14;10.95;;;5.53;;
77298;SDS011;66361;52.034;20.656;2024-03-07T16:25:58;8.07;;;4.95;;
77298;SDS011;66361;52.034;20.656;2024-03-07T16:29:46;7.00;;;4.90;;
77298;SDS011;66361;52.034;20.656;2024-03-07T16:33:31;8.10;;;5.65;;
77298;SDS011;66361;52.034;20.656;2024-03-07T16:37:17;9.98;;;5.28;;
77298;SDS011;66361;52.034;20.656;2024-03-07T16:41:01;8.20;;;6.00;;
77298;SDS011;66361;52.034;20.656;2024-03-07T16:44:45;8.63;;;5.47;;
77298;SDS011;66361;52.034;20.656;2024-03-07T16:48:29;8.65;;;5.15;;
77298;SDS011;66361;52.034;20.656;2024-03-07T16:52:17;9.85;;;6.43;;
77298;SDS011;66361;52.034;20.656;2024-03-07T16:59:46;9.68;;;5.72;;
77298;SDS011;66361;52.034;20.656;2024-03-07T17:03:32;8.85;;;5.45;;
77298;SDS011;66361;52.034;20.656;2024-03-07T17:07:17;8.63;;;5.82;;
77298;SDS011;66361;52.034;20.656;2024-03-07T17:11:01;9.95;;;5.63;;
77298;SDS011;66361;52.034;20.656;2024-03-07T17:18:30;9.00;;;5.35;;
77298;SDS011;66361;52.034;20.656;2024-03-07T17:22:14;16.58;;;7.85;;
77298;SDS011;66361;52.034;20.656;2024-03-07T17:26:02;13.50;;;7.15;;
77298;SDS011;66361;52.034;20.656;2024-03-07T17:29:46;11.23;;;8.75;;
77298;SDS011;66361;52.034;20.656;2024-03-07T17:33:30;13.35;;;7.25;;
77298;SDS011;66361;52.034;20.656;2024-03-07T17:37:14;13.57;;;7.68;;
77298;SDS011;66361;52.034;20.656;2024-03-07T17:41:00;16.27;;;9.38;;
77298;SDS011;66361;52.034;20.656;2024-03-07T17:44:45;14.77;;;8.00;;
77298;SDS011;66361;52.034;20.656;2024-03-07T17:48:30;13.50;;;8.05;;
77298;SDS011;66361;52.034;20.656;2024-03-07T17:52:19;16.33;;;9.45;;
77298;SDS011;66361;52.034;20.656;2024-03-07T17:56:05;15.38;;;8.07;;
77298;SDS011;66361;52.034;20.656;2024-03-07T17:59:51;19.30;;;8.63;;
77298;SDS011;66361;52.034;20.656;2024-03-07T18:03:36;17.75;;;11.13;;
77298;SDS011;66361;52.034;20.656;2024-03-07T18:07:20;19.65;;;11.63;;
77298;SDS011;66361;52.034;20.656;2024-03-07T18:11:06;18.08;;;10.95;;
77298;SDS011;66361;52.034;20.656;2024-03-07T18:14:57;18.45;;;10.55;;
77298;SDS011;66361;52.034;20.656;2024-03-07T18:19:01;16.58;;;9.52;;
77298;SDS011;66361;52.034;20.656;2024-03-07T18:22:44;16.33;;;9.50;;
77298;SDS011;66361;52.034;20.656;2024-03-07T18:26:34;46.03;;;23.42;;
77298;SDS011;66361;52.034;20.656;2024-03-07T18:30:17;26.13;;;14.38;;
77298;SDS011;66361;52.034;20.656;2024-03-07T18:34:02;23.00;;;11.65;;
77298;SDS011;66361;52.034;20.656;2024-03-07T18:37:49;21.25;;;10.85;;
77298;SDS011;66361;52.034;20.656;2024-03-07T18:41:36;18.38;;;11.15;;
77298;SDS011;66361;52.034;20.656;2024-03-07T18:45:23;25.85;;;13.30;;
77298;SDS011;66361;52.034;20.656;2024-03-07T18:49:07;30.40;;;21.02;;
77298;SDS011;66361;52.034;20.656;2024-03-07T18:52:55;25.73;;;15.63;;
77298;SDS011;66361;52.034;20.656;2024-03-07T18:56:41;27.80;;;15.55;;
77298;SDS011;66361;52.034;20.656;2024-03-07T19:00:26;24.95;;;13.90;;
77298;SDS011;66361;52.034;20.656;2024-03-07T19:04:13;25.55;;;14.20;;
77298;SDS011;66361;52.034;20.656;2024-03-07T19:08:01;24.00;;;13.05;;
77298;SDS011;66361;52.034;20.656;2024-03-07T19:11:50;23.55;;;13.32;;
77298;SDS011;66361;52.034;20.656;2024-03-07T19:15:34;21.25;;;11.55;;
77298;SDS011;66361;52.034;20.656;2024-03-07T19:19:19;24.35;;;12.43;;
77298;SDS011;66361;52.034;20.656;2024-03-07T19:23:03;24.38;;;12.90;;
77298;SDS011;66361;52.034;20.656;2024-03-07T19:26:52;24.00;;;12.20;;
77298;SDS011;66361;52.034;20.656;2024-03-07T19:30:38;31.38;;;13.95;;
77298;SDS011;66361;52.034;20.656;2024-03-07T19:34:23;40.55;;;17.45;;
77298;SDS011;66361;52.034;20.656;2024-03-07T19:38:07;39.60;;;19.23;;
77298;SDS011;66361;52.034;20.656;2024-03-07T19:41:53;37.80;;;20.10;;
77298;SDS011;66361;52.034;20.656;2024-03-07T19:45:49;37.85;;;19.35;;
77298;SDS011;66361;52.034;20.656;2024-03-07T19:49:35;38.45;;;18.17;;
77298;SDS011;66361;52.034;20.656;2024-03-07T19:53:19;33.47;;;17.30;;
77298;SDS011;66361;52.034;20.656;2024-03-07T19:57:07;35.58;;;18.25;;
77298;SDS011;66361;52.034;20.656;2024-03-07T20:00:53;35.72;;;16.90;;
77298;SDS011;66361;52.034;20.656;2024-03-07T20:04:38;44.35;;;20.70;;
77298;SDS011;66361;52.034;20.656;2024-03-07T20:08:22;47.92;;;20.33;;
77298;SDS011;66361;52.034;20.656;2024-03-07T20:12:12;41.20;;;20.08;;
77298;SDS011;66361;52.034;20.656;2024-03-07T20:15:58;47.95;;;24.42;;
77298;SDS011;66361;52.034;20.656;2024-03-07T20:19:42;39.45;;;23.77;;
77298;SDS011;66361;52.034;20.656;2024-03-07T20:23:26;46.70;;;22.30;;
77298;SDS011;66361;52.034;20.656;2024-03-07T20:27:14;45.25;;;23.45;;
77298;SDS011;66361;52.034;20.656;2024-03-07T20:30:58;46.15;;;22.38;;
77298;SDS011;66361;52.034;20.656;2024-03-07T20:34:43;45.72;;;21.77;;
77298;SDS011;66361;52.034;20.656;2024-03-07T20:38:26;45.00;;;20.05;;
77298;SDS011;66361;52.034;20.656;2024-03-07T20:42:11;45.28;;;21.35;;
77298;SDS011;66361;52.034;20.656;2024-03-07T20:45:56;41.67;;;20.52;;
77298;SDS011;66361;52.034;20.656;2024-03-07T20:49:43;47.47;;;19.55;;
77298;SDS011;66361;52.034;20.656;2024-03-07T20:53:29;41.10;;;21.83;;
77298;SDS011;66361;52.034;20.656;2024-03-07T20:57:14;39.95;;;21.30;;
77298;SDS011;66361;52.034;20.656;2024-03-07T21:01:02;53.72;;;22.33;;
77298;SDS011;66361;52.034;20.656;2024-03-07T21:04:55;41.22;;;21.75;;
77298;SDS011;66361;52.034;20.656;2024-03-07T21:08:39;42.40;;;21.25;;
77298;SDS011;66361;52.034;20.656;2024-03-07T21:12:24;45.95;;;22.17;;
77298;SDS011;66361;52.034;20.656;2024-03-07T21:16:10;47.03;;;21.65;;
77298;SDS011;66361;52.034;20.656;2024-03-07T21:19:54;48.53;;;22.48;;
77298;SDS011;66361;52.034;20.656;2024-03-07T21:23:38;39.25;;;21.77;;
77298;SDS011;66361;52.034;20.656;2024-03-07T21:27:22;46.75;;;18.95;;
77298;SDS011;66361;52.034;20.656;2024-03-07T21:31:06;47.20;;;20.10;;
77298;SDS011;66361;52.034;20.656;2024-03-07T21:34:51;34.10;;;20.05;;
77298;SDS011;66361;52.034;20.656;2024-03-07T21:38:35;40.97;;;20.17;;
77298;SDS011;66361;52.034;20.656;2024-03-07T21:42:20;36.70;;;17.63;;
77298;SDS011;66361;52.034;20.656;2024-03-07T21:46:04;40.33;;;19.35;;
77298;SDS011;66361;52.034;20.656;2024-03-07T21:49:48;37.85;;;18.42;;
77298;SDS011;66361;52.034;20.656;2024-03-07T21:53:34;39.28;;;18.58;;
77298;SDS011;66361;52.034;20.656;2024-03-07T21:57:22;43.25;;;18.98;;
77298;SDS011;66361;52.034;20.656;2024-03-07T22:01:06;41.60;;;20.63;;
77298;SDS011;66361;52.034;20.656;2024-03-07T22:04:54;33.97;;;18.60;;
77298;SDS011;66361;52.034;20.656;2024-03-07T22:08:45;44.42;;;19.73;;
77298;SDS011;66361;52.034;20.656;2024-03-07T22:12:29;38.95;;;19.38;;
77298;SDS011;66361;52.034;20.656;2024-03-07T22:16:14;40.78;;;18.60;;
77298;SDS011;66361;52.034;20.656;2024-03-07T22:19:57;43.20;;;21.90;;
77298;SDS011;66361;52.034;20.656;2024-03-07T22:23:41;48.38;;;20.02;;
77298;SDS011;66361;52.034;20.656;2024-03-07T22:27:26;38.97;;;18.23;;
77298;SDS011;66361;52.034;20.656;2024-03-07T22:31:10;50.05;;;19.77;;
77298;SDS011;66361;52.034;20.656;2024-03-07T22:34:55;34.30;;;17.80;;
77298;SDS011;66361;52.034;20.656;2024-03-07T22:38:41;45.22;;;21.30;;
77298;SDS011;66361;52.034;20.656;2024-03-07T22:42:27;44.97;;;20.52;;
77298;SDS011;66361;52.034;20.656;2024-03-07T22:46:11;42.55;;;20.17;;
77298;SDS011;66361;52.034;20.656;2024-03-07T22:49:55;44.83;;;18.67;;
77298;SDS011;66361;52.034;20.656;2024-03-07T22:53:54;43.17;;;19.27;;
77298;SDS011;66361;52.034;20.656;2024-03-07T22:57:40;40.03;;;18.55;;